Terminal Aerodrome Forecast
Issued by NWS

Current Version | Previous Version | Text Only | Print | Product List | Glossary Off
Versions: 1 2 3 4 5 6 7 8 9 10 11 12 13 14 15 16 17 18 19 20 21 22 23

000
FTUS41 KRLX 210539
TAFCKB
TAF
KCKB 210539Z 2106/2206 22007KT P6SM SHRA OVC045
     FM210900 23006KT P6SM SHRA OVC025
     FM211200 24006KT P6SM SHRA OVC010
      TEMPO 2112/2114 4SM SHRA OVC008
     FM211500 25006KT P6SM VCTS OVC010CB
     FM211800 25006KT P6SM OVC015
     FM212000 27009KT P6SM BKN045
     FM212300 27007KT P6SM SCT200=

USA.gov is the U.S. government's official web portal to all federal, state and local government web resources and services.